Terminal Aerodrome Forecast
Issued by NWS Twin Cities, MN

Home | Current Version | Previous Version | Text Only | Print | Product List | Glossary On
Versions: 1 2 3 4 5 6 7 8 9 10 11 12 13 14
947
FTUS43 KMPX 241739
TAFEAU
TAF
KEAU 241739Z 2418/2518 24011KT P6SM SCT060 BKN120
     FM242000 30011G17KT P6SM VCSH SCT060 BKN090
      TEMPO 2421/2424 -SHRA BKN050 BKN080
     FM250000 30013G19KT P6SM BKN100
     FM250300 30012KT P6SM SKC=

USA.gov is the U.S. government's official web portal to all federal, state and local government web resources and services.